sensor_id;sensor_type;location;lat;lon;timestamp;P1;durP1;ratioP1;P2;durP2;ratioP2
47575;SDS011;33304;52.456;13.328;2022-10-22T00:02:18;1.97;;;1.87;;
47575;SDS011;33304;52.456;13.328;2022-10-22T00:04:46;2.00;;;1.90;;
47575;SDS011;33304;52.456;13.328;2022-10-22T00:07:13;2.37;;;2.10;;
47575;SDS011;33304;52.456;13.328;2022-10-22T00:09:40;2.87;;;2.20;;
47575;SDS011;33304;52.456;13.328;2022-10-22T00:12:07;2.70;;;2.50;;
47575;SDS011;33304;52.456;13.328;2022-10-22T00:14:36;2.10;;;2.00;;
47575;SDS011;33304;52.456;13.328;2022-10-22T00:17:04;2.63;;;2.43;;
47575;SDS011;33304;52.456;13.328;2022-10-22T00:19:31;2.10;;;1.87;;
47575;SDS011;33304;52.456;13.328;2022-10-22T00:21:58;2.40;;;2.07;;
47575;SDS011;33304;52.456;13.328;2022-10-22T00:24:25;2.20;;;2.10;;
47575;SDS011;33304;52.456;13.328;2022-10-22T00:26:52;2.43;;;1.97;;
47575;SDS011;33304;52.456;13.328;2022-10-22T00:29:19;2.53;;;2.00;;
47575;SDS011;33304;52.456;13.328;2022-10-22T00:31:47;2.00;;;1.90;;
47575;SDS011;33304;52.456;13.328;2022-10-22T00:34:15;1.40;;;1.30;;
47575;SDS011;33304;52.456;13.328;2022-10-22T00:36:42;2.57;;;2.37;;
47575;SDS011;33304;52.456;13.328;2022-10-22T00:39:10;2.50;;;2.13;;
47575;SDS011;33304;52.456;13.328;2022-10-22T00:41:40;2.27;;;2.07;;
47575;SDS011;33304;52.456;13.328;2022-10-22T00:47:09;1.90;;;1.80;;
47575;SDS011;33304;52.456;13.328;2022-10-22T00:49:36;2.50;;;2.30;;
47575;SDS011;33304;52.456;13.328;2022-10-22T00:52:04;1.93;;;1.63;;
47575;SDS011;33304;52.456;13.328;2022-10-22T00:54:31;1.90;;;1.80;;
47575;SDS011;33304;52.456;13.328;2022-10-22T00:56:59;2.80;;;2.53;;
47575;SDS011;33304;52.456;13.328;2022-10-22T00:59:26;1.83;;;1.73;;
47575;SDS011;33304;52.456;13.328;2022-10-22T01:01:54;1.57;;;1.47;;
47575;SDS011;33304;52.456;13.328;2022-10-22T01:04:23;2.10;;;1.70;;
47575;SDS011;33304;52.456;13.328;2022-10-22T01:06:50;2.27;;;2.07;;
47575;SDS011;33304;52.456;13.328;2022-10-22T01:09:19;1.60;;;1.50;;
47575;SDS011;33304;52.456;13.328;2022-10-22T01:12:00;1.90;;;1.70;;
47575;SDS011;33304;52.456;13.328;2022-10-22T01:14:34;2.40;;;2.03;;
47575;SDS011;33304;52.456;13.328;2022-10-22T01:17:07;2.33;;;2.03;;
47575;SDS011;33304;52.456;13.328;2022-10-22T01:19:47;1.90;;;1.63;;
47575;SDS011;33304;52.456;13.328;2022-10-22T01:22:26;2.30;;;2.10;;
47575;SDS011;33304;52.456;13.328;2022-10-22T01:24:59;2.50;;;2.30;;
47575;SDS011;33304;52.456;13.328;2022-10-22T01:27:41;1.63;;;1.53;;
47575;SDS011;33304;52.456;13.328;2022-10-22T01:30:19;1.90;;;1.80;;
47575;SDS011;33304;52.456;13.328;2022-10-22T01:32:48;2.30;;;1.90;;
47575;SDS011;33304;52.456;13.328;2022-10-22T01:35:18;2.10;;;1.60;;
47575;SDS011;33304;52.456;13.328;2022-10-22T01:37:49;2.33;;;2.13;;
47575;SDS011;33304;52.456;13.328;2022-10-22T01:40:19;1.60;;;1.47;;
47575;SDS011;33304;52.456;13.328;2022-10-22T01:42:57;1.50;;;1.40;;
47575;SDS011;33304;52.456;13.328;2022-10-22T01:45:27;1.83;;;1.73;;
47575;SDS011;33304;52.456;13.328;2022-10-22T01:47:56;2.30;;;2.10;;
47575;SDS011;33304;52.456;13.328;2022-10-22T01:50:36;1.40;;;1.30;;
47575;SDS011;33304;52.456;13.328;2022-10-22T01:53:20;1.93;;;1.80;;
47575;SDS011;33304;52.456;13.328;2022-10-22T01:56:00;2.07;;;1.87;;
47575;SDS011;33304;52.456;13.328;2022-10-22T01:58:47;1.70;;;1.60;;
47575;SDS011;33304;52.456;13.328;2022-10-22T02:01:24;2.13;;;1.87;;
47575;SDS011;33304;52.456;13.328;2022-10-22T02:03:59;3.23;;;2.40;;
47575;SDS011;33304;52.456;13.328;2022-10-22T02:06:30;3.17;;;2.50;;
47575;SDS011;33304;52.456;13.328;2022-10-22T02:08:59;2.07;;;1.83;;
47575;SDS011;33304;52.456;13.328;2022-10-22T02:11:27;2.17;;;1.97;;
47575;SDS011;33304;52.456;13.328;2022-10-22T02:13:55;1.80;;;1.70;;
47575;SDS011;33304;52.456;13.328;2022-10-22T02:16:27;1.70;;;1.60;;
47575;SDS011;33304;52.456;13.328;2022-10-22T02:19:00;1.93;;;1.83;;
47575;SDS011;33304;52.456;13.328;2022-10-22T02:21:31;1.57;;;1.47;;
47575;SDS011;33304;52.456;13.328;2022-10-22T02:23:58;1.53;;;1.43;;
47575;SDS011;33304;52.456;13.328;2022-10-22T02:26:27;1.50;;;1.37;;
47575;SDS011;33304;52.456;13.328;2022-10-22T02:29:01;1.80;;;1.70;;
47575;SDS011;33304;52.456;13.328;2022-10-22T02:31:34;1.60;;;1.50;;
47575;SDS011;33304;52.456;13.328;2022-10-22T02:34:06;2.10;;;1.90;;
47575;SDS011;33304;52.456;13.328;2022-10-22T02:36:36;2.37;;;1.70;;
47575;SDS011;33304;52.456;13.328;2022-10-22T02:39:04;3.57;;;2.30;;
47575;SDS011;33304;52.456;13.328;2022-10-22T02:41:33;2.00;;;1.90;;
47575;SDS011;33304;52.456;13.328;2022-10-22T02:44:01;2.10;;;1.90;;
47575;SDS011;33304;52.456;13.328;2022-10-22T02:46:33;1.77;;;1.67;;
47575;SDS011;33304;52.456;13.328;2022-10-22T02:49:01;1.60;;;1.50;;
47575;SDS011;33304;52.456;13.328;2022-10-22T02:51:28;1.67;;;1.57;;
47575;SDS011;33304;52.456;13.328;2022-10-22T02:53:55;1.87;;;1.77;;
47575;SDS011;33304;52.456;13.328;2022-10-22T02:56:22;1.60;;;1.50;;
47575;SDS011;33304;52.456;13.328;2022-10-22T02:58:49;1.60;;;1.50;;
47575;SDS011;33304;52.456;13.328;2022-10-22T03:01:16;2.00;;;1.90;;
47575;SDS011;33304;52.456;13.328;2022-10-22T03:03:44;1.80;;;1.70;;
47575;SDS011;33304;52.456;13.328;2022-10-22T03:06:11;2.13;;;1.90;;
47575;SDS011;33304;52.456;13.328;2022-10-22T03:08:38;2.10;;;1.90;;
47575;SDS011;33304;52.456;13.328;2022-10-22T03:11:06;1.83;;;1.73;;
47575;SDS011;33304;52.456;13.328;2022-10-22T03:13:33;1.73;;;1.63;;
47575;SDS011;33304;52.456;13.328;2022-10-22T03:16:00;2.80;;;2.27;;
47575;SDS011;33304;52.456;13.328;2022-10-22T03:18:27;1.70;;;1.60;;
47575;SDS011;33304;52.456;13.328;2022-10-22T03:21:03;1.93;;;1.73;;
47575;SDS011;33304;52.456;13.328;2022-10-22T03:23:35;1.90;;;1.80;;
47575;SDS011;33304;52.456;13.328;2022-10-22T03:26:03;2.00;;;1.90;;
47575;SDS011;33304;52.456;13.328;2022-10-22T03:28:31;1.73;;;1.63;;
47575;SDS011;33304;52.456;13.328;2022-10-22T03:30:59;3.70;;;1.83;;
47575;SDS011;33304;52.456;13.328;2022-10-22T03:33:27;1.60;;;1.50;;
47575;SDS011;33304;52.456;13.328;2022-10-22T03:35:54;2.03;;;1.83;;
47575;SDS011;33304;52.456;13.328;2022-10-22T03:38:22;2.10;;;2.00;;
47575;SDS011;33304;52.456;13.328;2022-10-22T03:40:50;2.03;;;1.80;;
47575;SDS011;33304;52.456;13.328;2022-10-22T03:43:17;2.17;;;1.87;;
47575;SDS011;33304;52.456;13.328;2022-10-22T03:45:44;1.90;;;1.70;;
47575;SDS011;33304;52.456;13.328;2022-10-22T03:48:11;1.93;;;1.73;;
47575;SDS011;33304;52.456;13.328;2022-10-22T03:50:38;2.07;;;1.97;;
47575;SDS011;33304;52.456;13.328;2022-10-22T03:53:05;1.67;;;1.57;;
47575;SDS011;33304;52.456;13.328;2022-10-22T03:55:36;2.90;;;2.50;;
47575;SDS011;33304;52.456;13.328;2022-10-22T03:58:06;2.03;;;1.93;;
47575;SDS011;33304;52.456;13.328;2022-10-22T04:00:33;3.00;;;2.30;;
47575;SDS011;33304;52.456;13.328;2022-10-22T04:03:00;2.30;;;2.10;;
47575;SDS011;33304;52.456;13.328;2022-10-22T04:05:28;2.50;;;1.90;;
47575;SDS011;33304;52.456;13.328;2022-10-22T04:07:55;2.03;;;1.83;;
47575;SDS011;33304;52.456;13.328;2022-10-22T04:10:22;2.03;;;1.70;;
47575;SDS011;33304;52.456;13.328;2022-10-22T04:12:50;1.97;;;1.80;;
47575;SDS011;33304;52.456;13.328;2022-10-22T04:15:17;1.77;;;1.67;;
47575;SDS011;33304;52.456;13.328;2022-10-22T04:17:44;1.77;;;1.67;;
47575;SDS011;33304;52.456;13.328;2022-10-22T04:20:11;2.47;;;2.00;;
47575;SDS011;33304;52.456;13.328;2022-10-22T04:22:38;5.10;;;1.90;;
47575;SDS011;33304;52.456;13.328;2022-10-22T04:25:06;1.60;;;1.47;;
47575;SDS011;33304;52.456;13.328;2022-10-22T04:27:33;1.50;;;1.40;;
47575;SDS011;33304;52.456;13.328;2022-10-22T04:30:02;1.87;;;1.67;;
47575;SDS011;33304;52.456;13.328;2022-10-22T04:32:31;1.63;;;1.37;;
47575;SDS011;33304;52.456;13.328;2022-10-22T04:34:58;2.53;;;2.33;;
47575;SDS011;33304;52.456;13.328;2022-10-22T04:37:25;2.33;;;2.00;;
47575;SDS011;33304;52.456;13.328;2022-10-22T04:39:52;1.50;;;1.40;;
47575;SDS011;33304;52.456;13.328;2022-10-22T04:42:19;2.20;;;2.00;;
47575;SDS011;33304;52.456;13.328;2022-10-22T04:44:46;1.70;;;1.40;;
47575;SDS011;33304;52.456;13.328;2022-10-22T04:47:14;1.83;;;1.73;;
47575;SDS011;33304;52.456;13.328;2022-10-22T04:49:41;1.70;;;1.60;;
47575;SDS011;33304;52.456;13.328;2022-10-22T04:52:08;2.57;;;1.83;;
47575;SDS011;33304;52.456;13.328;2022-10-22T04:54:37;4.23;;;2.30;;
47575;SDS011;33304;52.456;13.328;2022-10-22T04:57:04;2.20;;;1.93;;
47575;SDS011;33304;52.456;13.328;2022-10-22T04:59:31;1.93;;;1.73;;
47575;SDS011;33304;52.456;13.328;2022-10-22T05:01:58;2.00;;;1.90;;
47575;SDS011;33304;52.456;13.328;2022-10-22T05:04:26;2.60;;;2.40;;
47575;SDS011;33304;52.456;13.328;2022-10-22T05:06:53;1.83;;;1.73;;
47575;SDS011;33304;52.456;13.328;2022-10-22T05:09:20;2.27;;;2.07;;
47575;SDS011;33304;52.456;13.328;2022-10-22T05:11:48;2.47;;;2.20;;
47575;SDS011;33304;52.456;13.328;2022-10-22T05:14:18;1.80;;;1.70;;
47575;SDS011;33304;52.456;13.328;2022-10-22T05:16:47;2.23;;;2.03;;
47575;SDS011;33304;52.456;13.328;2022-10-22T05:19:16;1.60;;;1.50;;
47575;SDS011;33304;52.456;13.328;2022-10-22T05:21:45;2.03;;;1.93;;
47575;SDS011;33304;52.456;13.328;2022-10-22T05:24:12;2.63;;;2.27;;
47575;SDS011;33304;52.456;13.328;2022-10-22T05:26:39;2.60;;;2.40;;
47575;SDS011;33304;52.456;13.328;2022-10-22T05:29:06;2.23;;;2.03;;
47575;SDS011;33304;52.456;13.328;2022-10-22T05:31:34;1.90;;;1.80;;
47575;SDS011;33304;52.456;13.328;2022-10-22T05:34:01;2.00;;;1.77;;
47575;SDS011;33304;52.456;13.328;2022-10-22T05:36:28;2.47;;;2.23;;
47575;SDS011;33304;52.456;13.328;2022-10-22T05:38:57;2.10;;;1.67;;
47575;SDS011;33304;52.456;13.328;2022-10-22T05:41:24;4.77;;;2.10;;
47575;SDS011;33304;52.456;13.328;2022-10-22T05:43:53;2.57;;;2.27;;
47575;SDS011;33304;52.456;13.328;2022-10-22T05:46:21;2.13;;;1.93;;
47575;SDS011;33304;52.456;13.328;2022-10-22T05:48:49;2.83;;;2.27;;
47575;SDS011;33304;52.456;13.328;2022-10-22T05:51:17;2.23;;;1.93;;
47575;SDS011;33304;52.456;13.328;2022-10-22T05:53:44;2.10;;;1.90;;
47575;SDS011;33304;52.456;13.328;2022-10-22T05:56:13;2.20;;;1.80;;
47575;SDS011;33304;52.456;13.328;2022-10-22T05:58:42;2.53;;;2.33;;
47575;SDS011;33304;52.456;13.328;2022-10-22T06:01:11;2.87;;;2.63;;
47575;SDS011;33304;52.456;13.328;2022-10-22T06:03:39;2.70;;;2.50;;
47575;SDS011;33304;52.456;13.328;2022-10-22T06:06:16;2.63;;;2.43;;
47575;SDS011;33304;52.456;13.328;2022-10-22T06:08:46;2.90;;;2.70;;
47575;SDS011;33304;52.456;13.328;2022-10-22T06:11:15;2.37;;;2.17;;
47575;SDS011;33304;52.456;13.328;2022-10-22T06:13:43;1.90;;;1.80;;
47575;SDS011;33304;52.456;13.328;2022-10-22T06:16:11;1.90;;;1.80;;
47575;SDS011;33304;52.456;13.328;2022-10-22T06:18:38;3.10;;;2.80;;
47575;SDS011;33304;52.456;13.328;2022-10-22T06:21:06;2.50;;;2.10;;
47575;SDS011;33304;52.456;13.328;2022-10-22T06:23:35;2.00;;;1.80;;
47575;SDS011;33304;52.456;13.328;2022-10-22T06:26:03;2.23;;;2.10;;
47575;SDS011;33304;52.456;13.328;2022-10-22T06:28:33;2.40;;;2.10;;
47575;SDS011;33304;52.456;13.328;2022-10-22T06:31:01;2.50;;;2.10;;
47575;SDS011;33304;52.456;13.328;2022-10-22T06:33:30;2.13;;;1.93;;
47575;SDS011;33304;52.456;13.328;2022-10-22T06:36:03;2.00;;;1.90;;
47575;SDS011;33304;52.456;13.328;2022-10-22T06:38:31;2.00;;;1.90;;
47575;SDS011;33304;52.456;13.328;2022-10-22T06:41:00;2.27;;;2.07;;
47575;SDS011;33304;52.456;13.328;2022-10-22T06:43:28;2.43;;;2.00;;
47575;SDS011;33304;52.456;13.328;2022-10-22T06:45:58;6.40;;;2.40;;
47575;SDS011;33304;52.456;13.328;2022-10-22T06:48:26;2.47;;;2.27;;
47575;SDS011;33304;52.456;13.328;2022-10-22T06:50:54;2.67;;;2.47;;
47575;SDS011;33304;52.456;13.328;2022-10-22T06:53:21;1.53;;;1.43;;
47575;SDS011;33304;52.456;13.328;2022-10-22T06:55:48;2.33;;;2.20;;
47575;SDS011;33304;52.456;13.328;2022-10-22T06:58:15;3.57;;;2.50;;
47575;SDS011;33304;52.456;13.328;2022-10-22T07:00:42;3.37;;;2.37;;
47575;SDS011;33304;52.456;13.328;2022-10-22T07:03:12;2.83;;;2.20;;
47575;SDS011;33304;52.456;13.328;2022-10-22T07:05:40;2.17;;;2.03;;
47575;SDS011;33304;52.456;13.328;2022-10-22T07:08:07;2.37;;;2.13;;
47575;SDS011;33304;52.456;13.328;2022-10-22T07:10:34;2.40;;;2.20;;
47575;SDS011;33304;52.456;13.328;2022-10-22T07:13:01;2.73;;;2.23;;
47575;SDS011;33304;52.456;13.328;2022-10-22T07:15:28;1.97;;;1.70;;
47575;SDS011;33304;52.456;13.328;2022-10-22T07:17:55;2.57;;;2.37;;
47575;SDS011;33304;52.456;13.328;2022-10-22T07:20:24;2.10;;;1.80;;
47575;SDS011;33304;52.456;13.328;2022-10-22T07:22:51;2.10;;;2.00;;
47575;SDS011;33304;52.456;13.328;2022-10-22T07:25:18;2.40;;;2.20;;
47575;SDS011;33304;52.456;13.328;2022-10-22T07:27:45;2.20;;;2.10;;
47575;SDS011;33304;52.456;13.328;2022-10-22T07:30:12;1.57;;;1.47;;
47575;SDS011;33304;52.456;13.328;2022-10-22T07:32:39;2.07;;;1.93;;
47575;SDS011;33304;52.456;13.328;2022-10-22T07:35:07;2.10;;;2.00;;
47575;SDS011;33304;52.456;13.328;2022-10-22T07:37:35;2.63;;;1.93;;
47575;SDS011;33304;52.456;13.328;2022-10-22T07:40:03;2.73;;;2.43;;
47575;SDS011;33304;52.456;13.328;2022-10-22T07:42:30;2.30;;;2.00;;
47575;SDS011;33304;52.456;13.328;2022-10-22T07:44:57;2.73;;;1.83;;
47575;SDS011;33304;52.456;13.328;2022-10-22T07:47:24;2.60;;;2.40;;
47575;SDS011;33304;52.456;13.328;2022-10-22T07:49:51;2.60;;;2.20;;
47575;SDS011;33304;52.456;13.328;2022-10-22T07:52:18;2.00;;;1.90;;
47575;SDS011;33304;52.456;13.328;2022-10-22T07:54:47;2.20;;;2.00;;
47575;SDS011;33304;52.456;13.328;2022-10-22T07:57:14;3.30;;;2.97;;
47575;SDS011;33304;52.456;13.328;2022-10-22T07:59:41;2.33;;;2.00;;
47575;SDS011;33304;52.456;13.328;2022-10-22T08:02:08;2.67;;;2.47;;
47575;SDS011;33304;52.456;13.328;2022-10-22T08:04:35;2.93;;;2.23;;
47575;SDS011;33304;52.456;13.328;2022-10-22T08:07:02;2.40;;;2.20;;
47575;SDS011;33304;52.456;13.328;2022-10-22T08:09:29;4.23;;;2.30;;
47575;SDS011;33304;52.456;13.328;2022-10-22T08:11:58;2.70;;;2.10;;
47575;SDS011;33304;52.456;13.328;2022-10-22T08:14:25;2.50;;;2.30;;
47575;SDS011;33304;52.456;13.328;2022-10-22T08:16:52;2.47;;;2.27;;
47575;SDS011;33304;52.456;13.328;2022-10-22T08:19:19;2.73;;;2.33;;
47575;SDS011;33304;52.456;13.328;2022-10-22T08:21:46;3.00;;;2.80;;
47575;SDS011;33304;52.456;13.328;2022-10-22T08:24:13;2.90;;;2.30;;
47575;SDS011;33304;52.456;13.328;2022-10-22T08:26:40;1.93;;;1.73;;
47575;SDS011;33304;52.456;13.328;2022-10-22T08:29:09;2.27;;;1.87;;
47575;SDS011;33304;52.456;13.328;2022-10-22T08:31:36;2.07;;;1.97;;
47575;SDS011;33304;52.456;13.328;2022-10-22T08:34:03;2.37;;;1.93;;
47575;SDS011;33304;52.456;13.328;2022-10-22T08:36:33;1.50;;;1.23;;
47575;SDS011;33304;52.456;13.328;2022-10-22T08:39:00;2.07;;;1.90;;
47575;SDS011;33304;52.456;13.328;2022-10-22T08:41:27;2.07;;;1.97;;
47575;SDS011;33304;52.456;13.328;2022-10-22T08:44:00;2.80;;;2.50;;
47575;SDS011;33304;52.456;13.328;2022-10-22T08:46:57;2.33;;;2.10;;
47575;SDS011;33304;52.456;13.328;2022-10-22T08:49:36;2.03;;;1.83;;
47575;SDS011;33304;52.456;13.328;2022-10-22T08:52:07;3.53;;;1.87;;
47575;SDS011;33304;52.456;13.328;2022-10-22T08:54:40;1.83;;;1.73;;
47575;SDS011;33304;52.456;13.328;2022-10-22T08:57:18;2.10;;;1.83;;
47575;SDS011;33304;52.456;13.328;2022-10-22T09:02:29;2.10;;;1.90;;
47575;SDS011;33304;52.456;13.328;2022-10-22T09:05:05;2.23;;;2.13;;
47575;SDS011;33304;52.456;13.328;2022-10-22T09:07:42;2.00;;;1.90;;
47575;SDS011;33304;52.456;13.328;2022-10-22T09:10:15;2.37;;;2.17;;
47575;SDS011;33304;52.456;13.328;2022-10-22T09:12:43;2.27;;;2.07;;
47575;SDS011;33304;52.456;13.328;2022-10-22T09:15:12;2.00;;;1.90;;
47575;SDS011;33304;52.456;13.328;2022-10-22T09:17:48;2.10;;;2.00;;
47575;SDS011;33304;52.456;13.328;2022-10-22T09:20:23;2.67;;;2.17;;
47575;SDS011;33304;52.456;13.328;2022-10-22T09:23:01;1.90;;;1.80;;
47575;SDS011;33304;52.456;13.328;2022-10-22T09:25:38;2.27;;;2.10;;
47575;SDS011;33304;52.456;13.328;2022-10-22T09:28:06;2.00;;;1.90;;
47575;SDS011;33304;52.456;13.328;2022-10-22T09:30:35;1.80;;;1.70;;
47575;SDS011;33304;52.456;13.328;2022-10-22T09:33:10;2.47;;;2.10;;
47575;SDS011;33304;52.456;13.328;2022-10-22T09:35:43;1.80;;;1.70;;
47575;SDS011;33304;52.456;13.328;2022-10-22T09:38:12;1.90;;;1.80;;
47575;SDS011;33304;52.456;13.328;2022-10-22T09:40:42;2.23;;;2.00;;
47575;SDS011;33304;52.456;13.328;2022-10-22T09:43:11;1.77;;;1.67;;
47575;SDS011;33304;52.456;13.328;2022-10-22T09:45:39;1.90;;;1.70;;
47575;SDS011;33304;52.456;13.328;2022-10-22T09:48:15;1.93;;;1.40;;
47575;SDS011;33304;52.456;13.328;2022-10-22T09:50:46;2.37;;;2.13;;
47575;SDS011;33304;52.456;13.328;2022-10-22T09:53:17;1.93;;;1.83;;
47575;SDS011;33304;52.456;13.328;2022-10-22T09:55:49;2.50;;;2.30;;
47575;SDS011;33304;52.456;13.328;2022-10-22T09:58:18;2.30;;;2.10;;
47575;SDS011;33304;52.456;13.328;2022-10-22T10:00:47;2.30;;;2.03;;
47575;SDS011;33304;52.456;13.328;2022-10-22T10:03:19;1.73;;;1.63;;
47575;SDS011;33304;52.456;13.328;2022-10-22T10:05:49;2.00;;;1.80;;
47575;SDS011;33304;52.456;13.328;2022-10-22T10:08:18;1.70;;;1.60;;
47575;SDS011;33304;52.456;13.328;2022-10-22T10:10:46;2.40;;;1.67;;
47575;SDS011;33304;52.456;13.328;2022-10-22T10:13:19;2.17;;;1.87;;
47575;SDS011;33304;52.456;13.328;2022-10-22T10:16:05;1.73;;;1.50;;
47575;SDS011;33304;52.456;13.328;2022-10-22T10:18:41;1.73;;;1.63;;
47575;SDS011;33304;52.456;13.328;2022-10-22T10:21:22;1.73;;;1.60;;
47575;SDS011;33304;52.456;13.328;2022-10-22T10:23:57;2.43;;;1.80;;
47575;SDS011;33304;52.456;13.328;2022-10-22T10:26:30;1.17;;;1.10;;
47575;SDS011;33304;52.456;13.328;2022-10-22T10:29:15;2.33;;;1.77;;
47575;SDS011;33304;52.456;13.328;2022-10-22T10:31:56;1.80;;;1.70;;
47575;SDS011;33304;52.456;13.328;2022-10-22T10:34:35;1.57;;;1.47;;
47575;SDS011;33304;52.456;13.328;2022-10-22T10:37:13;2.30;;;2.10;;
47575;SDS011;33304;52.456;13.328;2022-10-22T10:39:50;2.13;;;1.77;;
47575;SDS011;33304;52.456;13.328;2022-10-22T10:42:38;1.80;;;1.70;;
47575;SDS011;33304;52.456;13.328;2022-10-22T10:45:15;2.00;;;1.90;;
47575;SDS011;33304;52.456;13.328;2022-10-22T10:47:49;1.70;;;1.53;;
47575;SDS011;33304;52.456;13.328;2022-10-22T10:50:33;1.77;;;1.67;;
47575;SDS011;33304;52.456;13.328;2022-10-22T10:53:09;2.00;;;1.80;;
47575;SDS011;33304;52.456;13.328;2022-10-22T10:55:48;2.13;;;2.03;;
47575;SDS011;33304;52.456;13.328;2022-10-22T10:58:24;2.47;;;2.27;;
47575;SDS011;33304;52.456;13.328;2022-10-22T11:01:00;2.10;;;1.90;;
47575;SDS011;33304;52.456;13.328;2022-10-22T11:03:38;2.47;;;1.80;;
47575;SDS011;33304;52.456;13.328;2022-10-22T11:06:15;2.70;;;2.00;;
47575;SDS011;33304;52.456;13.328;2022-10-22T11:08:46;1.70;;;1.60;;
47575;SDS011;33304;52.456;13.328;2022-10-22T11:11:20;2.30;;;2.10;;
47575;SDS011;33304;52.456;13.328;2022-10-22T11:13:56;1.60;;;1.50;;
47575;SDS011;33304;52.456;13.328;2022-10-22T11:16:28;2.50;;;2.30;;
47575;SDS011;33304;52.456;13.328;2022-10-22T11:19:02;1.93;;;1.83;;
47575;SDS011;33304;52.456;13.328;2022-10-22T11:21:37;2.17;;;2.07;;
47575;SDS011;33304;52.456;13.328;2022-10-22T11:24:09;1.53;;;1.43;;
47575;SDS011;33304;52.456;13.328;2022-10-22T11:26:43;1.80;;;1.70;;
47575;SDS011;33304;52.456;13.328;2022-10-22T11:29:14;2.60;;;1.67;;
47575;SDS011;33304;52.456;13.328;2022-10-22T11:31:47;1.90;;;1.80;;
47575;SDS011;33304;52.456;13.328;2022-10-22T11:34:17;1.80;;;1.70;;
47575;SDS011;33304;52.456;13.328;2022-10-22T11:36:49;1.80;;;1.70;;
47575;SDS011;33304;52.456;13.328;2022-10-22T11:39:28;2.03;;;1.70;;
47575;SDS011;33304;52.456;13.328;2022-10-22T11:42:00;1.43;;;1.33;;
47575;SDS011;33304;52.456;13.328;2022-10-22T11:44:29;1.23;;;1.23;;
47575;SDS011;33304;52.456;13.328;2022-10-22T11:46:58;1.93;;;1.83;;
47575;SDS011;33304;52.456;13.328;2022-10-22T11:49:41;1.60;;;1.40;;
47575;SDS011;33304;52.456;13.328;2022-10-22T11:52:22;1.70;;;1.60;;
47575;SDS011;33304;52.456;13.328;2022-10-22T11:54:53;1.40;;;1.33;;
47575;SDS011;33304;52.456;13.328;2022-10-22T11:57:26;1.80;;;1.70;;
47575;SDS011;33304;52.456;13.328;2022-10-22T11:59:58;1.40;;;1.30;;
47575;SDS011;33304;52.456;13.328;2022-10-22T12:02:30;1.43;;;1.33;;
47575;SDS011;33304;52.456;13.328;2022-10-22T12:08:04;0.90;;;0.90;;
47575;SDS011;33304;52.456;13.328;2022-10-22T12:10:48;1.17;;;1.07;;
47575;SDS011;33304;52.456;13.328;2022-10-22T12:13:22;1.07;;;1.00;;
47575;SDS011;33304;52.456;13.328;2022-10-22T12:15:51;1.20;;;1.10;;
47575;SDS011;33304;52.456;13.328;2022-10-22T12:18:21;1.57;;;1.47;;
47575;SDS011;33304;52.456;13.328;2022-10-22T12:20:51;1.00;;;1.00;;
47575;SDS011;33304;52.456;13.328;2022-10-22T12:23:20;1.03;;;1.03;;
47575;SDS011;33304;52.456;13.328;2022-10-22T12:25:53;0.90;;;0.90;;
47575;SDS011;33304;52.456;13.328;2022-10-22T12:28:20;1.33;;;1.23;;
47575;SDS011;33304;52.456;13.328;2022-10-22T12:30:47;1.13;;;1.10;;
47575;SDS011;33304;52.456;13.328;2022-10-22T12:33:18;1.10;;;1.10;;
47575;SDS011;33304;52.456;13.328;2022-10-22T12:35:48;1.30;;;1.20;;
47575;SDS011;33304;52.456;13.328;2022-10-22T12:38:19;1.53;;;1.00;;
47575;SDS011;33304;52.456;13.328;2022-10-22T12:40:50;1.27;;;1.10;;
47575;SDS011;33304;52.456;13.328;2022-10-22T12:43:23;1.07;;;1.07;;
47575;SDS011;33304;52.456;13.328;2022-10-22T12:45:51;0.90;;;0.90;;
47575;SDS011;33304;52.456;13.328;2022-10-22T12:48:20;0.87;;;0.87;;
47575;SDS011;33304;52.456;13.328;2022-10-22T12:50:50;2.33;;;1.23;;
47575;SDS011;33304;52.456;13.328;2022-10-22T12:53:20;0.93;;;0.93;;
47575;SDS011;33304;52.456;13.328;2022-10-22T12:55:50;1.20;;;1.20;;
47575;SDS011;33304;52.456;13.328;2022-10-22T12:58:20;0.60;;;0.60;;
47575;SDS011;33304;52.456;13.328;2022-10-22T13:00:52;0.90;;;0.90;;
47575;SDS011;33304;52.456;13.328;2022-10-22T13:03:24;1.20;;;1.20;;
47575;SDS011;33304;52.456;13.328;2022-10-22T13:05:53;0.87;;;0.87;;
47575;SDS011;33304;52.456;13.328;2022-10-22T13:08:21;1.10;;;1.10;;
47575;SDS011;33304;52.456;13.328;2022-10-22T13:10:53;1.02;;;0.93;;
47575;SDS011;33304;52.456;13.328;2022-10-22T13:13:30;1.10;;;1.10;;
47575;SDS011;33304;52.456;13.328;2022-10-22T13:16:18;1.95;;;1.35;;
47575;SDS011;33304;52.456;13.328;2022-10-22T13:18:49;1.90;;;1.80;;
47575;SDS011;33304;52.456;13.328;2022-10-22T13:21:25;2.17;;;1.20;;
47575;SDS011;33304;52.456;13.328;2022-10-22T13:23:56;1.27;;;1.20;;
47575;SDS011;33304;52.456;13.328;2022-10-22T13:26:29;1.50;;;1.33;;
47575;SDS011;33304;52.456;13.328;2022-10-22T13:28:58;1.30;;;1.20;;
47575;SDS011;33304;52.456;13.328;2022-10-22T13:31:27;1.02;;;1.00;;
47575;SDS011;33304;52.456;13.328;2022-10-22T13:33:59;1.10;;;1.10;;
47575;SDS011;33304;52.456;13.328;2022-10-22T13:36:31;2.25;;;1.45;;
47575;SDS011;33304;52.456;13.328;2022-10-22T13:39:00;1.60;;;1.50;;
47575;SDS011;33304;52.456;13.328;2022-10-22T13:41:28;2.15;;;1.30;;
47575;SDS011;33304;52.456;13.328;2022-10-22T13:43:56;1.38;;;1.33;;
47575;SDS011;33304;52.456;13.328;2022-10-22T13:46:24;1.30;;;1.30;;
47575;SDS011;33304;52.456;13.328;2022-10-22T13:48:54;1.40;;;1.35;;
47575;SDS011;33304;52.456;13.328;2022-10-22T13:51:23;1.52;;;1.50;;
47575;SDS011;33304;52.456;13.328;2022-10-22T13:53:55;1.35;;;1.30;;
47575;SDS011;33304;52.456;13.328;2022-10-22T13:56:24;1.00;;;1.00;;
47575;SDS011;33304;52.456;13.328;2022-10-22T13:58:51;1.08;;;1.05;;
47575;SDS011;33304;52.456;13.328;2022-10-22T14:01:19;1.23;;;1.23;;
47575;SDS011;33304;52.456;13.328;2022-10-22T14:03:48;1.20;;;1.20;;
47575;SDS011;33304;52.456;13.328;2022-10-22T14:06:17;1.10;;;1.10;;
47575;SDS011;33304;52.456;13.328;2022-10-22T14:08:46;1.15;;;1.15;;
47575;SDS011;33304;52.456;13.328;2022-10-22T14:11:18;1.67;;;1.58;;
47575;SDS011;33304;52.456;13.328;2022-10-22T14:13:46;1.35;;;1.20;;
47575;SDS011;33304;52.456;13.328;2022-10-22T14:16:14;1.02;;;1.02;;
47575;SDS011;33304;52.456;13.328;2022-10-22T14:18:44;1.10;;;1.10;;
47575;SDS011;33304;52.456;13.328;2022-10-22T14:21:13;1.20;;;1.20;;
47575;SDS011;33304;52.456;13.328;2022-10-22T14:23:42;1.50;;;1.40;;
47575;SDS011;33304;52.456;13.328;2022-10-22T14:26:11;1.75;;;1.65;;
47575;SDS011;33304;52.456;13.328;2022-10-22T14:28:48;0.85;;;0.85;;
47575;SDS011;33304;52.456;13.328;2022-10-22T14:31:15;1.10;;;1.10;;
47575;SDS011;33304;52.456;13.328;2022-10-22T14:33:42;1.73;;;1.13;;
47575;SDS011;33304;52.456;13.328;2022-10-22T14:36:10;1.65;;;1.42;;
47575;SDS011;33304;52.456;13.328;2022-10-22T14:38:39;1.38;;;1.27;;
47575;SDS011;33304;52.456;13.328;2022-10-22T14:41:11;1.17;;;1.08;;
47575;SDS011;33304;52.456;13.328;2022-10-22T14:43:43;1.60;;;1.50;;
47575;SDS011;33304;52.456;13.328;2022-10-22T14:46:12;1.50;;;1.40;;
47575;SDS011;33304;52.456;13.328;2022-10-22T14:48:40;0.98;;;0.98;;
47575;SDS011;33304;52.456;13.328;2022-10-22T14:51:10;1.00;;;1.00;;
47575;SDS011;33304;52.456;13.328;2022-10-22T14:53:39;1.23;;;1.20;;
47575;SDS011;33304;52.456;13.328;2022-10-22T14:56:08;0.73;;;0.73;;
47575;SDS011;33304;52.456;13.328;2022-10-22T14:58:36;1.07;;;1.07;;
47575;SDS011;33304;52.456;13.328;2022-10-22T15:01:03;1.93;;;1.03;;